sensor_id;sensor_type;location;lat;lon;timestamp;P1;durP1;ratioP1;P2;durP2;ratioP2
25249;SDS011;13201;51.148;13.738;2022-10-22T00:00:09;16.00;;;7.68;;
25249;SDS011;13201;51.148;13.738;2022-10-22T00:02:38;12.80;;;6.85;;
25249;SDS011;13201;51.148;13.738;2022-10-22T00:05:04;13.45;;;7.18;;
25249;SDS011;13201;51.148;13.738;2022-10-22T00:07:30;14.18;;;7.45;;
25249;SDS011;13201;51.148;13.738;2022-10-22T00:09:56;16.08;;;8.23;;
25249;SDS011;13201;51.148;13.738;2022-10-22T00:12:22;15.38;;;8.18;;
25249;SDS011;13201;51.148;13.738;2022-10-22T00:14:48;13.88;;;8.27;;
25249;SDS011;13201;51.148;13.738;2022-10-22T00:17:14;18.85;;;8.63;;
25249;SDS011;13201;51.148;13.738;2022-10-22T00:19:40;17.95;;;8.50;;
25249;SDS011;13201;51.148;13.738;2022-10-22T00:22:06;17.08;;;8.20;;
25249;SDS011;13201;51.148;13.738;2022-10-22T00:24:34;16.20;;;8.65;;
25249;SDS011;13201;51.148;13.738;2022-10-22T00:27:01;20.17;;;8.88;;
25249;SDS011;13201;51.148;13.738;2022-10-22T00:29:27;17.95;;;9.35;;
25249;SDS011;13201;51.148;13.738;2022-10-22T00:31:53;17.75;;;9.73;;
25249;SDS011;13201;51.148;13.738;2022-10-22T00:34:19;19.77;;;9.80;;
25249;SDS011;13201;51.148;13.738;2022-10-22T00:39:16;21.52;;;9.43;;
25249;SDS011;13201;51.148;13.738;2022-10-22T00:41:43;14.77;;;8.40;;
25249;SDS011;13201;51.148;13.738;2022-10-22T00:46:54;19.48;;;9.45;;
25249;SDS011;13201;51.148;13.738;2022-10-22T00:49:19;17.98;;;8.82;;
25249;SDS011;13201;51.148;13.738;2022-10-22T00:51:45;18.25;;;8.85;;
25249;SDS011;13201;51.148;13.738;2022-10-22T00:54:11;18.63;;;9.10;;
25249;SDS011;13201;51.148;13.738;2022-10-22T00:56:36;18.85;;;8.88;;
25249;SDS011;13201;51.148;13.738;2022-10-22T00:59:02;19.08;;;9.45;;
25249;SDS011;13201;51.148;13.738;2022-10-22T01:01:29;17.80;;;8.70;;
25249;SDS011;13201;51.148;13.738;2022-10-22T01:03:56;18.50;;;9.18;;
25249;SDS011;13201;51.148;13.738;2022-10-22T01:31:35;24.00;;;10.95;;
25249;SDS011;13201;51.148;13.738;2022-10-22T01:34:05;24.55;;;11.98;;
25249;SDS011;13201;51.148;13.738;2022-10-22T01:36:34;26.00;;;12.05;;
25249;SDS011;13201;51.148;13.738;2022-10-22T01:39:01;27.58;;;11.85;;
25249;SDS011;13201;51.148;13.738;2022-10-22T01:41:28;24.52;;;11.32;;
25249;SDS011;13201;51.148;13.738;2022-10-22T01:43:54;22.05;;;11.10;;
25249;SDS011;13201;51.148;13.738;2022-10-22T01:46:21;23.67;;;12.43;;
25249;SDS011;13201;51.148;13.738;2022-10-22T01:57:19;26.02;;;12.25;;
25249;SDS011;13201;51.148;13.738;2022-10-22T02:00:07;25.65;;;11.98;;
25249;SDS011;13201;51.148;13.738;2022-10-22T02:08:01;23.35;;;11.32;;
25249;SDS011;13201;51.148;13.738;2022-10-22T02:10:30;22.13;;;11.55;;
25249;SDS011;13201;51.148;13.738;2022-10-22T02:12:57;23.83;;;10.98;;
25249;SDS011;13201;51.148;13.738;2022-10-22T02:15:25;24.63;;;11.55;;
25249;SDS011;13201;51.148;13.738;2022-10-22T02:17:54;18.48;;;10.65;;
25249;SDS011;13201;51.148;13.738;2022-10-22T02:20:23;25.42;;;11.80;;
25249;SDS011;13201;51.148;13.738;2022-10-22T02:22:52;24.92;;;12.05;;
25249;SDS011;13201;51.148;13.738;2022-10-22T02:25:20;25.10;;;12.18;;
25249;SDS011;13201;51.148;13.738;2022-10-22T02:27:48;23.00;;;11.63;;
25249;SDS011;13201;51.148;13.738;2022-10-22T02:30:22;23.48;;;11.65;;
25249;SDS011;13201;51.148;13.738;2022-10-22T02:32:59;27.77;;;11.60;;
25249;SDS011;13201;51.148;13.738;2022-10-22T02:35:27;22.13;;;11.45;;
25249;SDS011;13201;51.148;13.738;2022-10-22T02:40:20;23.70;;;11.57;;
25249;SDS011;13201;51.148;13.738;2022-10-22T02:42:47;23.40;;;12.13;;
25249;SDS011;13201;51.148;13.738;2022-10-22T02:45:15;25.50;;;12.13;;
25249;SDS011;13201;51.148;13.738;2022-10-22T02:47:42;22.92;;;11.60;;
25249;SDS011;13201;51.148;13.738;2022-10-22T02:50:08;25.30;;;12.70;;
25249;SDS011;13201;51.148;13.738;2022-10-22T02:52:33;23.13;;;11.13;;
25249;SDS011;13201;51.148;13.738;2022-10-22T02:54:59;27.92;;;12.45;;
25249;SDS011;13201;51.148;13.738;2022-10-22T02:57:25;23.60;;;11.48;;
25249;SDS011;13201;51.148;13.738;2022-10-22T02:59:50;25.30;;;11.82;;
25249;SDS011;13201;51.148;13.738;2022-10-22T03:02:16;27.27;;;12.48;;
25249;SDS011;13201;51.148;13.738;2022-10-22T03:04:41;24.05;;;11.95;;
25249;SDS011;13201;51.148;13.738;2022-10-22T03:07:07;25.60;;;11.27;;
25249;SDS011;13201;51.148;13.738;2022-10-22T03:09:33;25.80;;;12.05;;
25249;SDS011;13201;51.148;13.738;2022-10-22T03:11:58;22.42;;;12.15;;
25249;SDS011;13201;51.148;13.738;2022-10-22T03:14:24;22.85;;;11.55;;
25249;SDS011;13201;51.148;13.738;2022-10-22T03:16:49;24.13;;;11.63;;
25249;SDS011;13201;51.148;13.738;2022-10-22T03:19:15;20.88;;;11.68;;
25249;SDS011;13201;51.148;13.738;2022-10-22T03:21:42;26.52;;;11.90;;
25249;SDS011;13201;51.148;13.738;2022-10-22T03:24:15;22.55;;;11.93;;
25249;SDS011;13201;51.148;13.738;2022-10-22T03:26:48;25.40;;;12.15;;
25249;SDS011;13201;51.148;13.738;2022-10-22T03:29:16;22.73;;;11.48;;
25249;SDS011;13201;51.148;13.738;2022-10-22T03:31:42;23.98;;;12.30;;
25249;SDS011;13201;51.148;13.738;2022-10-22T03:34:08;24.02;;;12.15;;
25249;SDS011;13201;51.148;13.738;2022-10-22T03:36:35;24.23;;;10.65;;
25249;SDS011;13201;51.148;13.738;2022-10-22T03:39:02;22.17;;;11.10;;
25249;SDS011;13201;51.148;13.738;2022-10-22T03:43:55;20.63;;;11.37;;
25249;SDS011;13201;51.148;13.738;2022-10-22T03:46:21;23.55;;;11.48;;
25249;SDS011;13201;51.148;13.738;2022-10-22T03:48:47;27.57;;;12.33;;
25249;SDS011;13201;51.148;13.738;2022-10-22T03:51:13;24.20;;;11.32;;
25249;SDS011;13201;51.148;13.738;2022-10-22T03:53:39;22.02;;;11.23;;
25249;SDS011;13201;51.148;13.738;2022-10-22T03:56:08;22.60;;;11.68;;
25249;SDS011;13201;51.148;13.738;2022-10-22T03:58:34;25.67;;;11.43;;
25249;SDS011;13201;51.148;13.738;2022-10-22T04:01:04;24.15;;;11.77;;
25249;SDS011;13201;51.148;13.738;2022-10-22T04:03:35;23.83;;;11.20;;
25249;SDS011;13201;51.148;13.738;2022-10-22T04:06:01;23.80;;;11.07;;
25249;SDS011;13201;51.148;13.738;2022-10-22T04:08:31;22.95;;;10.98;;
25249;SDS011;13201;51.148;13.738;2022-10-22T04:10:57;23.63;;;11.15;;
25249;SDS011;13201;51.148;13.738;2022-10-22T04:13:23;21.77;;;10.88;;
25249;SDS011;13201;51.148;13.738;2022-10-22T04:15:49;24.63;;;10.57;;
25249;SDS011;13201;51.148;13.738;2022-10-22T04:18:16;20.08;;;10.70;;
25249;SDS011;13201;51.148;13.738;2022-10-22T04:20:42;25.50;;;10.40;;
25249;SDS011;13201;51.148;13.738;2022-10-22T04:23:08;24.25;;;10.73;;
25249;SDS011;13201;51.148;13.738;2022-10-22T04:25:34;23.08;;;10.98;;
25249;SDS011;13201;51.148;13.738;2022-10-22T04:28:00;24.23;;;11.35;;
25249;SDS011;13201;51.148;13.738;2022-10-22T04:30:26;23.05;;;10.55;;
25249;SDS011;13201;51.148;13.738;2022-10-22T04:32:51;22.27;;;10.98;;
25249;SDS011;13201;51.148;13.738;2022-10-22T04:35:17;23.88;;;11.75;;
25249;SDS011;13201;51.148;13.738;2022-10-22T04:37:43;26.52;;;12.15;;
25249;SDS011;13201;51.148;13.738;2022-10-22T04:40:08;20.20;;;11.38;;
25249;SDS011;13201;51.148;13.738;2022-10-22T04:42:35;23.58;;;12.23;;
25249;SDS011;13201;51.148;13.738;2022-10-22T04:45:00;21.90;;;11.13;;
25249;SDS011;13201;51.148;13.738;2022-10-22T04:47:26;23.02;;;11.18;;
25249;SDS011;13201;51.148;13.738;2022-10-22T04:49:51;23.50;;;11.63;;
25249;SDS011;13201;51.148;13.738;2022-10-22T04:52:17;25.42;;;12.02;;
25249;SDS011;13201;51.148;13.738;2022-10-22T04:54:43;26.98;;;12.60;;
25249;SDS011;13201;51.148;13.738;2022-10-22T04:57:08;25.10;;;12.32;;
25249;SDS011;13201;51.148;13.738;2022-10-22T04:59:34;24.25;;;11.75;;
25249;SDS011;13201;51.148;13.738;2022-10-22T05:01:59;22.63;;;11.98;;
25249;SDS011;13201;51.148;13.738;2022-10-22T05:04:25;22.75;;;11.38;;
25249;SDS011;13201;51.148;13.738;2022-10-22T05:06:51;25.98;;;11.88;;
25249;SDS011;13201;51.148;13.738;2022-10-22T05:09:17;25.00;;;12.13;;
25249;SDS011;13201;51.148;13.738;2022-10-22T05:11:45;22.70;;;11.63;;
25249;SDS011;13201;51.148;13.738;2022-10-22T05:14:12;24.35;;;11.38;;
25249;SDS011;13201;51.148;13.738;2022-10-22T05:16:41;23.17;;;11.27;;
25249;SDS011;13201;51.148;13.738;2022-10-22T05:19:07;24.80;;;11.35;;
25249;SDS011;13201;51.148;13.738;2022-10-22T05:21:33;22.73;;;11.50;;
25249;SDS011;13201;51.148;13.738;2022-10-22T05:23:59;22.40;;;10.95;;
25249;SDS011;13201;51.148;13.738;2022-10-22T05:26:25;22.73;;;11.73;;
25249;SDS011;13201;51.148;13.738;2022-10-22T05:28:52;26.13;;;11.75;;
25249;SDS011;13201;51.148;13.738;2022-10-22T05:31:18;20.10;;;10.73;;
25249;SDS011;13201;51.148;13.738;2022-10-22T05:33:45;22.40;;;11.48;;
25249;SDS011;13201;51.148;13.738;2022-10-22T05:36:14;24.40;;;11.60;;
25249;SDS011;13201;51.148;13.738;2022-10-22T05:38:43;22.08;;;10.82;;
25249;SDS011;13201;51.148;13.738;2022-10-22T05:41:09;21.70;;;11.37;;
25249;SDS011;13201;51.148;13.738;2022-10-22T05:43:36;23.20;;;11.15;;
25249;SDS011;13201;51.148;13.738;2022-10-22T05:46:03;21.90;;;11.00;;
25249;SDS011;13201;51.148;13.738;2022-10-22T05:48:31;20.13;;;10.32;;
25249;SDS011;13201;51.148;13.738;2022-10-22T05:51:00;20.80;;;11.03;;
25249;SDS011;13201;51.148;13.738;2022-10-22T05:53:29;23.27;;;11.52;;
25249;SDS011;13201;51.148;13.738;2022-10-22T05:55:59;22.70;;;10.73;;
25249;SDS011;13201;51.148;13.738;2022-10-22T05:58:29;23.77;;;11.38;;
25249;SDS011;13201;51.148;13.738;2022-10-22T06:00:59;23.52;;;11.52;;
25249;SDS011;13201;51.148;13.738;2022-10-22T06:03:29;20.60;;;10.35;;
25249;SDS011;13201;51.148;13.738;2022-10-22T06:05:56;22.98;;;11.00;;
25249;SDS011;13201;51.148;13.738;2022-10-22T06:08:26;23.75;;;11.07;;
25249;SDS011;13201;51.148;13.738;2022-10-22T06:10:52;23.17;;;11.50;;
25249;SDS011;13201;51.148;13.738;2022-10-22T06:13:18;19.30;;;10.45;;
25249;SDS011;13201;51.148;13.738;2022-10-22T06:15:44;21.00;;;10.93;;
25249;SDS011;13201;51.148;13.738;2022-10-22T06:18:09;20.20;;;10.27;;
25249;SDS011;13201;51.148;13.738;2022-10-22T06:20:35;19.48;;;10.48;;
25249;SDS011;13201;51.148;13.738;2022-10-22T06:23:00;21.27;;;10.02;;
25249;SDS011;13201;51.148;13.738;2022-10-22T06:25:26;18.42;;;9.63;;
25249;SDS011;13201;51.148;13.738;2022-10-22T06:27:52;20.08;;;9.88;;
25249;SDS011;13201;51.148;13.738;2022-10-22T06:30:17;19.55;;;9.70;;
25249;SDS011;13201;51.148;13.738;2022-10-22T06:32:43;17.98;;;9.77;;
25249;SDS011;13201;51.148;13.738;2022-10-22T06:35:08;23.17;;;10.27;;
25249;SDS011;13201;51.148;13.738;2022-10-22T06:37:34;21.00;;;10.20;;
25249;SDS011;13201;51.148;13.738;2022-10-22T06:39:59;20.92;;;10.35;;
25249;SDS011;13201;51.148;13.738;2022-10-22T06:42:26;20.40;;;10.27;;
25249;SDS011;13201;51.148;13.738;2022-10-22T06:44:52;22.70;;;10.30;;
25249;SDS011;13201;51.148;13.738;2022-10-22T06:47:18;21.35;;;10.27;;
25249;SDS011;13201;51.148;13.738;2022-10-22T06:49:43;22.85;;;10.77;;
25249;SDS011;13201;51.148;13.738;2022-10-22T06:52:09;22.10;;;9.77;;
25249;SDS011;13201;51.148;13.738;2022-10-22T06:54:35;21.63;;;10.55;;
25249;SDS011;13201;51.148;13.738;2022-10-22T06:57:00;18.48;;;10.35;;
25249;SDS011;13201;51.148;13.738;2022-10-22T06:59:26;19.85;;;10.45;;
25249;SDS011;13201;51.148;13.738;2022-10-22T07:01:51;22.80;;;10.02;;
25249;SDS011;13201;51.148;13.738;2022-10-22T07:04:17;16.38;;;9.27;;
25249;SDS011;13201;51.148;13.738;2022-10-22T07:06:42;20.98;;;10.25;;
25249;SDS011;13201;51.148;13.738;2022-10-22T07:09:08;20.30;;;10.10;;
25249;SDS011;13201;51.148;13.738;2022-10-22T07:11:43;22.35;;;10.23;;
25249;SDS011;13201;51.148;13.738;2022-10-22T07:14:10;21.08;;;10.70;;
25249;SDS011;13201;51.148;13.738;2022-10-22T07:16:36;24.52;;;10.82;;
25249;SDS011;13201;51.148;13.738;2022-10-22T07:19:02;25.58;;;11.10;;
25249;SDS011;13201;51.148;13.738;2022-10-22T07:21:29;23.70;;;10.30;;
25249;SDS011;13201;51.148;13.738;2022-10-22T07:23:55;17.30;;;10.23;;
25249;SDS011;13201;51.148;13.738;2022-10-22T07:26:21;20.90;;;10.63;;
25249;SDS011;13201;51.148;13.738;2022-10-22T07:28:49;22.80;;;10.60;;
25249;SDS011;13201;51.148;13.738;2022-10-22T07:31:15;17.60;;;10.02;;
25249;SDS011;13201;51.148;13.738;2022-10-22T07:36:10;22.63;;;10.63;;
25249;SDS011;13201;51.148;13.738;2022-10-22T07:38:41;23.63;;;10.27;;
25249;SDS011;13201;51.148;13.738;2022-10-22T07:41:09;21.23;;;10.02;;
25249;SDS011;13201;51.148;13.738;2022-10-22T07:43:34;17.63;;;9.27;;
25249;SDS011;13201;51.148;13.738;2022-10-22T07:46:00;19.92;;;9.57;;
25249;SDS011;13201;51.148;13.738;2022-10-22T07:48:27;16.33;;;9.43;;
25249;SDS011;13201;51.148;13.738;2022-10-22T07:50:52;19.05;;;10.15;;
25249;SDS011;13201;51.148;13.738;2022-10-22T07:53:18;17.48;;;9.57;;
25249;SDS011;13201;51.148;13.738;2022-10-22T07:55:48;21.05;;;10.57;;
25249;SDS011;13201;51.148;13.738;2022-10-22T07:58:14;26.38;;;10.70;;
25249;SDS011;13201;51.148;13.738;2022-10-22T08:00:40;43.88;;;12.18;;
25249;SDS011;13201;51.148;13.738;2022-10-22T08:03:07;24.95;;;10.35;;
25249;SDS011;13201;51.148;13.738;2022-10-22T08:05:34;18.48;;;9.05;;
25249;SDS011;13201;51.148;13.738;2022-10-22T08:08:00;26.48;;;10.63;;
25249;SDS011;13201;51.148;13.738;2022-10-22T08:10:26;45.22;;;12.43;;
25249;SDS011;13201;51.148;13.738;2022-10-22T08:12:51;17.92;;;9.13;;
25249;SDS011;13201;51.148;13.738;2022-10-22T08:15:17;24.95;;;9.73;;
25249;SDS011;13201;51.148;13.738;2022-10-22T08:17:42;80.97;;;14.25;;
25249;SDS011;13201;51.148;13.738;2022-10-22T08:20:08;20.10;;;9.57;;
25249;SDS011;13201;51.148;13.738;2022-10-22T08:22:34;20.52;;;9.27;;
25249;SDS011;13201;51.148;13.738;2022-10-22T08:25:00;29.65;;;11.82;;
25249;SDS011;13201;51.148;13.738;2022-10-22T08:27:25;21.55;;;12.25;;
25249;SDS011;13201;51.148;13.738;2022-10-22T08:29:51;21.45;;;10.45;;
25249;SDS011;13201;51.148;13.738;2022-10-22T08:32:17;26.90;;;14.13;;
25249;SDS011;13201;51.148;13.738;2022-10-22T08:34:42;18.75;;;9.30;;
25249;SDS011;13201;51.148;13.738;2022-10-22T08:37:08;21.98;;;9.15;;
25249;SDS011;13201;51.148;13.738;2022-10-22T08:39:38;17.35;;;8.80;;
25249;SDS011;13201;51.148;13.738;2022-10-22T08:42:14;13.55;;;6.78;;
25249;SDS011;13201;51.148;13.738;2022-10-22T08:50:37;8.57;;;4.72;;
25249;SDS011;13201;51.148;13.738;2022-10-22T08:53:14;9.27;;;3.95;;
25249;SDS011;13201;51.148;13.738;2022-10-22T08:55:42;9.15;;;3.88;;
25249;SDS011;13201;51.148;13.738;2022-10-22T09:00:48;5.22;;;3.25;;
25249;SDS011;13201;51.148;13.738;2022-10-22T09:06:20;3.58;;;2.20;;
25249;SDS011;13201;51.148;13.738;2022-10-22T09:08:51;3.45;;;1.75;;
25249;SDS011;13201;51.148;13.738;2022-10-22T09:11:32;4.28;;;1.98;;
25249;SDS011;13201;51.148;13.738;2022-10-22T09:14:00;2.15;;;1.70;;
25249;SDS011;13201;51.148;13.738;2022-10-22T09:19:20;2.22;;;1.20;;
25249;SDS011;13201;51.148;13.738;2022-10-22T09:21:59;3.22;;;1.33;;
25249;SDS011;13201;51.148;13.738;2022-10-22T09:24:39;1.30;;;0.90;;
25249;SDS011;13201;51.148;13.738;2022-10-22T09:27:10;3.13;;;1.50;;
25249;SDS011;13201;51.148;13.738;2022-10-22T09:29:36;3.15;;;1.40;;
25249;SDS011;13201;51.148;13.738;2022-10-22T09:32:02;3.60;;;1.20;;
25249;SDS011;13201;51.148;13.738;2022-10-22T09:34:28;2.05;;;1.20;;
25249;SDS011;13201;51.148;13.738;2022-10-22T09:36:58;5.45;;;1.63;;
25249;SDS011;13201;51.148;13.738;2022-10-22T09:39:31;1.90;;;1.20;;
25249;SDS011;13201;51.148;13.738;2022-10-22T09:41:58;1.55;;;0.90;;
25249;SDS011;13201;51.148;13.738;2022-10-22T09:44:24;1.60;;;1.20;;
25249;SDS011;13201;51.148;13.738;2022-10-22T09:46:50;1.20;;;1.00;;
25249;SDS011;13201;51.148;13.738;2022-10-22T09:49:17;1.67;;;1.15;;
25249;SDS011;13201;51.148;13.738;2022-10-22T09:51:52;1.45;;;1.00;;
25249;SDS011;13201;51.148;13.738;2022-10-22T09:56:57;3.03;;;1.23;;
25249;SDS011;13201;51.148;13.738;2022-10-22T09:59:37;3.45;;;1.10;;
25249;SDS011;13201;51.148;13.738;2022-10-22T10:02:09;2.13;;;0.95;;
25249;SDS011;13201;51.148;13.738;2022-10-22T10:04:39;5.68;;;0.80;;
25249;SDS011;13201;51.148;13.738;2022-10-22T10:07:17;1.58;;;0.70;;
25249;SDS011;13201;51.148;13.738;2022-10-22T10:09:44;1.13;;;0.80;;
25249;SDS011;13201;51.148;13.738;2022-10-22T10:20:39;1.88;;;0.70;;
25249;SDS011;13201;51.148;13.738;2022-10-22T10:26:36;0.83;;;0.73;;
25249;SDS011;13201;51.148;13.738;2022-10-22T10:37:41;1.15;;;0.68;;
25249;SDS011;13201;51.148;13.738;2022-10-22T10:51:11;1.00;;;0.40;;
25249;SDS011;13201;51.148;13.738;2022-10-22T10:59:11;0.80;;;0.40;;
25249;SDS011;13201;51.148;13.738;2022-10-22T11:04:45;2.40;;;0.30;;
25249;SDS011;13201;51.148;13.738;2022-10-22T11:07:19;0.52;;;0.40;;
25249;SDS011;13201;51.148;13.738;2022-10-22T11:09:55;2.58;;;0.35;;
25249;SDS011;13201;51.148;13.738;2022-10-22T11:12:27;0.25;;;0.20;;
25249;SDS011;13201;51.148;13.738;2022-10-22T11:15:02;0.90;;;0.35;;
25249;SDS011;13201;51.148;13.738;2022-10-22T11:17:47;1.25;;;0.50;;
25249;SDS011;13201;51.148;13.738;2022-10-22T11:20:19;1.58;;;0.50;;
25249;SDS011;13201;51.148;13.738;2022-10-22T11:22:54;0.60;;;0.45;;
25249;SDS011;13201;51.148;13.738;2022-10-22T11:25:29;0.93;;;0.40;;
25249;SDS011;13201;51.148;13.738;2022-10-22T11:30:52;0.75;;;0.60;;
25249;SDS011;13201;51.148;13.738;2022-10-22T11:33:25;0.98;;;0.38;;
25249;SDS011;13201;51.148;13.738;2022-10-22T11:35:57;2.97;;;0.40;;
25249;SDS011;13201;51.148;13.738;2022-10-22T11:38:26;0.57;;;0.40;;
25249;SDS011;13201;51.148;13.738;2022-10-22T11:40:57;5.63;;;0.70;;
25249;SDS011;13201;51.148;13.738;2022-10-22T11:43:30;1.13;;;0.60;;
25249;SDS011;13201;51.148;13.738;2022-10-22T11:48:41;1.10;;;0.80;;
25249;SDS011;13201;51.148;13.738;2022-10-22T11:54:00;1.77;;;0.80;;
25249;SDS011;13201;51.148;13.738;2022-10-22T11:56:45;1.65;;;0.70;;
25249;SDS011;13201;51.148;13.738;2022-10-22T11:59:29;0.90;;;0.70;;
25249;SDS011;13201;51.148;13.738;2022-10-22T12:02:33;1.45;;;0.70;;
25249;SDS011;13201;51.148;13.738;2022-10-22T12:10:21;0.82;;;0.43;;
25249;SDS011;13201;51.148;13.738;2022-10-22T12:12:54;1.05;;;0.70;;
25249;SDS011;13201;51.148;13.738;2022-10-22T12:15:23;2.28;;;0.70;;
25249;SDS011;13201;51.148;13.738;2022-10-22T12:18:01;2.42;;;0.98;;
25249;SDS011;13201;51.148;13.738;2022-10-22T12:20:29;1.15;;;0.70;;
25249;SDS011;13201;51.148;13.738;2022-10-22T12:22:56;1.48;;;0.80;;
25249;SDS011;13201;51.148;13.738;2022-10-22T12:25:24;1.30;;;1.02;;
25249;SDS011;13201;51.148;13.738;2022-10-22T12:27:55;1.23;;;0.80;;
25249;SDS011;13201;51.148;13.738;2022-10-22T12:30:24;1.45;;;0.90;;
25249;SDS011;13201;51.148;13.738;2022-10-22T12:32:52;1.38;;;0.65;;
25249;SDS011;13201;51.148;13.738;2022-10-22T12:35:21;1.30;;;0.73;;
25249;SDS011;13201;51.148;13.738;2022-10-22T12:37:53;0.98;;;0.70;;
25249;SDS011;13201;51.148;13.738;2022-10-22T12:40:22;0.40;;;0.40;;
25249;SDS011;13201;51.148;13.738;2022-10-22T12:42:53;0.63;;;0.55;;
25249;SDS011;13201;51.148;13.738;2022-10-22T12:45:20;2.03;;;0.43;;
25249;SDS011;13201;51.148;13.738;2022-10-22T12:47:47;1.45;;;0.70;;
25249;SDS011;13201;51.148;13.738;2022-10-22T12:50:17;1.63;;;0.70;;
25249;SDS011;13201;51.148;13.738;2022-10-22T12:52:47;2.95;;;0.50;;
25249;SDS011;13201;51.148;13.738;2022-10-22T12:55:17;2.53;;;0.70;;
25249;SDS011;13201;51.148;13.738;2022-10-22T12:57:46;0.65;;;0.57;;
25249;SDS011;13201;51.148;13.738;2022-10-22T13:00:23;1.27;;;0.88;;
25249;SDS011;13201;51.148;13.738;2022-10-22T13:02:51;1.38;;;0.70;;
25249;SDS011;13201;51.148;13.738;2022-10-22T13:05:30;0.30;;;0.30;;
25249;SDS011;13201;51.148;13.738;2022-10-22T13:08:04;0.90;;;0.57;;
25249;SDS011;13201;51.148;13.738;2022-10-22T13:10:35;1.02;;;0.55;;
25249;SDS011;13201;51.148;13.738;2022-10-22T13:13:04;1.45;;;0.60;;
25249;SDS011;13201;51.148;13.738;2022-10-22T13:18:16;1.08;;;0.60;;
25249;SDS011;13201;51.148;13.738;2022-10-22T13:20:50;0.88;;;0.47;;
25249;SDS011;13201;51.148;13.738;2022-10-22T13:23:21;1.27;;;0.60;;
25249;SDS011;13201;51.148;13.738;2022-10-22T13:25:58;0.65;;;0.30;;
25249;SDS011;13201;51.148;13.738;2022-10-22T13:28:26;0.85;;;0.50;;
25249;SDS011;13201;51.148;13.738;2022-10-22T13:30:54;2.17;;;0.50;;
25249;SDS011;13201;51.148;13.738;2022-10-22T13:33:29;1.23;;;0.57;;
25249;SDS011;13201;51.148;13.738;2022-10-22T13:35:58;0.88;;;0.70;;
25249;SDS011;13201;51.148;13.738;2022-10-22T13:38:25;1.23;;;0.60;;
25249;SDS011;13201;51.148;13.738;2022-10-22T13:40:52;0.68;;;0.50;;
25249;SDS011;13201;51.148;13.738;2022-10-22T13:43:17;2.40;;;0.75;;
25249;SDS011;13201;51.148;13.738;2022-10-22T13:45:44;0.95;;;0.60;;
25249;SDS011;13201;51.148;13.738;2022-10-22T13:48:15;0.50;;;0.40;;
25249;SDS011;13201;51.148;13.738;2022-10-22T13:50:46;1.17;;;0.57;;
25249;SDS011;13201;51.148;13.738;2022-10-22T13:53:14;0.90;;;0.50;;
25249;SDS011;13201;51.148;13.738;2022-10-22T13:55:43;0.38;;;0.38;;
25249;SDS011;13201;51.148;13.738;2022-10-22T13:58:13;2.78;;;0.40;;
25249;SDS011;13201;51.148;13.738;2022-10-22T14:00:46;3.80;;;0.80;;
25249;SDS011;13201;51.148;13.738;2022-10-22T14:03:15;0.70;;;0.40;;
25249;SDS011;13201;51.148;13.738;2022-10-22T14:05:44;0.47;;;0.40;;
25249;SDS011;13201;51.148;13.738;2022-10-22T14:08:12;0.82;;;0.43;;
25249;SDS011;13201;51.148;13.738;2022-10-22T14:10:39;0.73;;;0.55;;
25249;SDS011;13201;51.148;13.738;2022-10-22T14:13:05;1.65;;;0.50;;
25249;SDS011;13201;51.148;13.738;2022-10-22T14:15:32;0.90;;;0.70;;
25249;SDS011;13201;51.148;13.738;2022-10-22T14:17:58;0.57;;;0.40;;
25249;SDS011;13201;51.148;13.738;2022-10-22T14:20:26;0.77;;;0.50;;
25249;SDS011;13201;51.148;13.738;2022-10-22T14:22:53;0.55;;;0.50;;
25249;SDS011;13201;51.148;13.738;2022-10-22T14:25:21;2.72;;;0.60;;
25249;SDS011;13201;51.148;13.738;2022-10-22T14:27:48;3.08;;;0.60;;
25249;SDS011;13201;51.148;13.738;2022-10-22T14:30:18;1.08;;;0.65;;
25249;SDS011;13201;51.148;13.738;2022-10-22T14:32:45;1.00;;;0.40;;
25249;SDS011;13201;51.148;13.738;2022-10-22T14:40:05;1.20;;;0.60;;
25249;SDS011;13201;51.148;13.738;2022-10-22T14:42:33;0.85;;;0.40;;
25249;SDS011;13201;51.148;13.738;2022-10-22T14:45:04;0.80;;;0.60;;
25249;SDS011;13201;51.148;13.738;2022-10-22T14:47:30;2.45;;;0.60;;
25249;SDS011;13201;51.148;13.738;2022-10-22T14:49:56;2.50;;;0.63;;
25249;SDS011;13201;51.148;13.738;2022-10-22T14:52:22;6.82;;;0.90;;
25249;SDS011;13201;51.148;13.738;2022-10-22T14:54:47;2.20;;;0.75;;
25249;SDS011;13201;51.148;13.738;2022-10-22T14:57:13;5.55;;;0.90;;
25249;SDS011;13201;51.148;13.738;2022-10-22T14:59:40;4.93;;;0.93;;
25249;SDS011;13201;51.148;13.738;2022-10-22T15:02:08;0.80;;;0.80;;
25249;SDS011;13201;51.148;13.738;2022-10-22T15:04:37;2.70;;;1.10;;
25249;SDS011;13201;51.148;13.738;2022-10-22T15:07:03;2.35;;;0.93;;
25249;SDS011;13201;51.148;13.738;2022-10-22T15:09:29;5.10;;;1.02;;
25249;SDS011;13201;51.148;13.738;2022-10-22T15:11:55;1.98;;;1.08;;
25249;SDS011;13201;51.148;13.738;2022-10-22T15:14:20;1.10;;;0.73;;
25249;SDS011;13201;51.148;13.738;2022-10-22T15:16:46;2.00;;;0.68;;
25249;SDS011;13201;51.148;13.738;2022-10-22T15:19:12;2.22;;;0.90;;
25249;SDS011;13201;51.148;13.738;2022-10-22T15:21:38;1.37;;;0.70;;
25249;SDS011;13201;51.148;13.738;2022-10-22T15:24:03;1.67;;;0.55;;
25249;SDS011;13201;51.148;13.738;2022-10-22T15:26:29;0.67;;;0.53;;
25249;SDS011;13201;51.148;13.738;2022-10-22T15:28:55;0.68;;;0.50;;
25249;SDS011;13201;51.148;13.738;2022-10-22T15:34:23;1.95;;;0.50;;
25249;SDS011;13201;51.148;13.738;2022-10-22T15:36:52;0.90;;;0.35;;
25249;SDS011;13201;51.148;13.738;2022-10-22T15:39:19;0.93;;;0.47;;
25249;SDS011;13201;51.148;13.738;2022-10-22T15:41:45;17.08;;;8.45;;
25249;SDS011;13201;51.148;13.738;2022-10-22T15:44:13;49.10;;;27.35;;
25249;SDS011;13201;51.148;13.738;2022-10-22T15:46:43;10.55;;;5.72;;
25249;SDS011;13201;51.148;13.738;2022-10-22T15:49:09;6.82;;;2.47;;
25249;SDS011;13201;51.148;13.738;2022-10-22T15:51:35;2.95;;;0.93;;
25249;SDS011;13201;51.148;13.738;2022-10-22T15:54:01;2.47;;;0.65;;
25249;SDS011;13201;51.148;13.738;2022-10-22T15:56:27;1.73;;;0.70;;
25249;SDS011;13201;51.148;13.738;2022-10-22T15:58:55;1.42;;;0.43;;
25249;SDS011;13201;51.148;13.738;2022-10-22T16:01:22;2.58;;;0.45;;
25249;SDS011;13201;51.148;13.738;2022-10-22T16:03:49;1.43;;;0.63;;
25249;SDS011;13201;51.148;13.738;2022-10-22T16:09:04;0.88;;;0.65;;
25249;SDS011;13201;51.148;13.738;2022-10-22T16:11:32;1.85;;;0.60;;
25249;SDS011;13201;51.148;13.738;2022-10-22T16:13:58;1.17;;;1.00;;
25249;SDS011;13201;51.148;13.738;2022-10-22T16:16:25;1.45;;;0.90;;
25249;SDS011;13201;51.148;13.738;2022-10-22T16:18:53;2.55;;;0.75;;
25249;SDS011;13201;51.148;13.738;2022-10-22T16:21:19;1.50;;;0.85;;
25249;SDS011;13201;51.148;13.738;2022-10-22T16:23:45;4.40;;;1.40;;
25249;SDS011;13201;51.148;13.738;2022-10-22T16:26:11;1.10;;;1.00;;
25249;SDS011;13201;51.148;13.738;2022-10-22T16:28:38;1.15;;;0.80;;
25249;SDS011;13201;51.148;13.738;2022-10-22T16:31:06;2.67;;;0.90;;
25249;SDS011;13201;51.148;13.738;2022-10-22T16:33:34;0.80;;;0.80;;
25249;SDS011;13201;51.148;13.738;2022-10-22T16:38:26;3.03;;;1.30;;
25249;SDS011;13201;51.148;13.738;2022-10-22T16:40:52;7.88;;;3.97;;
25249;SDS011;13201;51.148;13.738;2022-10-22T16:43:18;3.25;;;1.60;;